createdAt,value
2019-05-04T00:00:25.558Z,94824.16
2019-05-04T00:02:55.001Z,94825.32
2019-05-04T00:05:27.192Z,94834.20
2019-05-04T00:07:56.525Z,94830.39
2019-05-04T00:10:25.849Z,94819.47
2019-05-04T00:12:55.232Z,94831.64
2019-05-04T00:15:25.088Z,94828.06
2019-05-04T00:17:55.370Z,94818.36
2019-05-04T00:20:25.488Z,94818.36
2019-05-04T00:22:55.364Z,94817.94
2019-05-04T00:25:25.581Z,94825.55
2019-05-04T00:27:55.371Z,94828.48
2019-05-04T00:30:24.917Z,94820.50
2019-05-04T00:33:05.415Z,94820.80
2019-05-04T00:36:02.965Z,94824.33
2019-05-04T00:38:32.304Z,94834.03
2019-05-04T00:41:01.622Z,94822.90
2019-05-04T00:43:30.967Z,94818.91
2019-05-04T00:46:00.291Z,94825.83
2019-05-04T00:48:29.625Z,94825.58
2019-05-04T00:50:59.039Z,94818.14
2019-05-04T00:53:28.365Z,94820.22
2019-05-04T00:56:17.789Z,94818.98
2019-05-04T00:58:56.562Z,94826.96
2019-05-04T01:01:35.819Z,94823.80
2019-05-04T01:04:05.134Z,94819.00
2019-05-04T01:06:34.740Z,94815.05
2019-05-04T01:09:05.470Z,94817.56
2019-05-04T01:11:34.797Z,94815.34
2019-05-04T01:14:04.496Z,94815.98
2019-05-04T01:16:35.084Z,94814.11
2019-05-04T01:19:05.509Z,94813.43
2019-05-04T01:21:34.985Z,94809.59
2019-05-04T01:24:04.541Z,94817.50
2019-05-04T01:26:34.672Z,94815.38
2019-05-04T01:29:04.577Z,94826.67
2019-05-04T01:31:34.514Z,94822.27
2019-05-04T01:34:24.567Z,94826.54
2019-05-04T01:36:59.780Z,94823.52
2019-05-04T01:39:50.276Z,94825.55
2019-05-04T01:42:19.675Z,94825.03
2019-05-04T01:44:49.001Z,94818.98
2019-05-04T01:47:18.352Z,94814.77
2019-05-04T01:49:47.765Z,94816.27
2019-05-04T01:52:17.771Z,94809.03
2019-05-04T01:54:47.122Z,94799.98
2019-05-04T01:57:25.902Z,94804.23
2019-05-04T01:59:55.625Z,94810.56
2019-05-04T02:02:26.215Z,94813.69
2019-05-04T02:04:55.646Z,94817.13
2019-05-04T02:07:25.501Z,94814.33
2019-05-04T02:09:55.235Z,94814.33
2019-05-04T02:12:25.609Z,94808.99
2019-05-04T02:14:55.244Z,94814.27
2019-05-04T02:17:24.984Z,94811.45
2019-05-04T02:19:55.784Z,94813.01
2019-05-04T02:22:35.308Z,94806.02
2019-05-04T02:25:12.101Z,94811.36
2019-05-04T02:27:47.361Z,94801.88
2019-05-04T02:30:36.791Z,94787.13
2019-05-04T02:33:06.609Z,94786.08
2019-05-04T02:35:36.098Z,94784.20
2019-05-04T02:38:13.297Z,94790.59
2019-05-04T02:40:50.462Z,94787.33
2019-05-04T02:43:08.727Z,94791.44
2019-05-04T02:45:40.677Z,94788.51
2019-05-04T02:48:25.305Z,94795.98
2019-05-04T02:51:05.896Z,94793.29
2019-05-04T02:53:36.294Z,94780.77
2019-05-04T02:56:05.861Z,94778.83
2019-05-04T02:58:38.278Z,94780.56
2019-05-04T03:01:06.239Z,94781.98
2019-05-04T03:03:35.719Z,94778.11
2019-05-04T03:06:05.386Z,94775.19
2019-05-04T03:08:38.483Z,94766.44
2019-05-04T03:11:06.111Z,94775.80
2019-05-04T03:13:35.880Z,94762.13
2019-05-04T03:16:05.578Z,94771.17
2019-05-04T03:18:41.564Z,94766.83
2019-05-04T03:21:29.820Z,94768.70
2019-05-04T03:23:59.377Z,94764.33
2019-05-04T03:26:28.726Z,94773.42
2019-05-04T03:28:58.048Z,94764.33
2019-05-04T03:31:28.379Z,94763.84
2019-05-04T03:33:58.976Z,94764.63
2019-05-04T03:36:32.642Z,94772.20
2019-05-04T03:38:59.932Z,94772.92
2019-05-04T03:41:29.323Z,94777.77
2019-05-04T03:43:58.737Z,94772.80
2019-05-04T03:46:46.964Z,94765.25
2019-05-04T03:49:38.004Z,94768.31
2019-05-04T03:52:07.662Z,94769.33
2019-05-04T03:54:36.961Z,94775.43
2019-05-04T03:57:06.301Z,94778.09
2019-05-04T03:59:36.008Z,94769.86
2019-05-04T04:02:06.036Z,94778.79
2019-05-04T04:04:36.193Z,94781.02
2019-05-04T04:07:05.939Z,94782.21
2019-05-04T04:09:37.110Z,94776.83
2019-05-04T04:12:06.326Z,94785.39
2019-05-04T04:14:36.232Z,94783.31
2019-05-04T04:17:15.352Z,94788.55
2019-05-04T04:19:46.129Z,94787.83
2019-05-04T04:22:15.957Z,94776.31
2019-05-04T04:24:46.272Z,94778.05
2019-05-04T04:27:19.842Z,94778.19
2019-05-04T04:29:49.202Z,94771.71
2019-05-04T04:32:18.552Z,94761.23
2019-05-04T04:34:47.863Z,94766.87
2019-05-04T04:37:17.227Z,94757.40
2019-05-04T04:39:46.712Z,94770.64
2019-05-04T04:42:16.783Z,94767.23
2019-05-04T04:44:46.376Z,94773.39
2019-05-04T04:47:15.697Z,94773.66
2019-05-04T04:49:45.572Z,94775.14
2019-05-04T04:52:15.489Z,94776.09
2019-05-04T04:54:50.182Z,94779.62
2019-05-04T04:57:35.579Z,94777.44
2019-05-04T05:00:26.966Z,94782.37
2019-05-04T05:02:56.307Z,94769.51
2019-05-04T05:05:42.205Z,94781.42
2019-05-04T05:08:16.002Z,94772.33
2019-05-04T05:10:45.509Z,94771.44
2019-05-04T05:13:15.359Z,94774.53
2019-05-04T05:15:45.017Z,94773.27
2019-05-04T05:18:15.184Z,94769.81
2019-05-04T05:21:15.968Z,94774.69
2019-05-04T05:23:45.414Z,94773.69
2019-05-04T05:26:15.170Z,94772.91
2019-05-04T05:28:44.978Z,94776.45
2019-05-04T05:31:29.710Z,94766.25
2019-05-04T05:34:16.965Z,94759.23
2019-05-04T05:36:47.110Z,94762.32
2019-05-04T05:39:16.469Z,94760.00
2019-05-04T05:41:50.075Z,94755.03
2019-05-04T05:44:16.925Z,94762.42
2019-05-04T05:46:56.497Z,94748.09
2019-05-04T05:49:45.327Z,94751.34
2019-05-04T05:52:40.763Z,94760.48
2019-05-04T05:55:21.703Z,94750.07
2019-05-04T05:58:07.566Z,94747.14
2019-05-04T06:00:54.947Z,94747.32
2019-05-04T06:03:44.786Z,94756.93
2019-05-04T06:06:22.060Z,94745.72
2019-05-04T06:08:51.393Z,94745.15
2019-05-04T06:11:22.083Z,94740.61
2019-05-04T06:14:14.940Z,94741.81
2019-05-04T06:16:59.214Z,94735.51
2019-05-04T06:19:47.486Z,94731.58
2019-05-04T06:22:25.356Z,94736.21
2019-05-04T06:25:11.449Z,94731.11
2019-05-04T06:27:48.613Z,94733.69
2019-05-04T06:30:29.090Z,94727.86
2019-05-04T06:33:11.369Z,94729.38
2019-05-04T06:35:50.296Z,94730.59
2019-05-04T06:38:41.013Z,94719.19
2019-05-04T06:41:11.397Z,94724.88
2019-05-04T06:43:58.309Z,94717.03
2019-05-04T06:46:32.087Z,94711.06
2019-05-04T06:49:02.413Z,94708.80
2019-05-04T06:52:06.984Z,94698.48
2019-05-04T06:54:52.014Z,94711.28
2019-05-04T06:57:43.975Z,94703.13
2019-05-04T07:00:15.705Z,94699.07
2019-05-04T07:02:44.850Z,94699.39
2019-05-04T07:05:17.131Z,94707.31
2019-05-04T07:07:45.540Z,94696.04
2019-05-04T07:10:15.339Z,94697.70
2019-05-04T07:12:45.556Z,94699.48
2019-05-04T07:15:18.569Z,94695.81
2019-05-04T07:17:49.134Z,94690.02
2019-05-04T07:20:18.412Z,94677.03
2019-05-04T07:22:47.962Z,94684.94
2019-05-04T07:25:18.008Z,94685.73
2019-05-04T07:27:48.945Z,94685.80
2019-05-04T07:30:18.638Z,94676.85
2019-05-04T07:32:49.628Z,94681.25
2019-05-04T07:35:32.351Z,94669.73
2019-05-04T07:38:12.072Z,94672.48
2019-05-04T07:40:46.135Z,94662.50
2019-05-04T07:43:15.470Z,94664.25
2019-05-04T07:45:44.822Z,94664.13
2019-05-04T07:48:15.385Z,94665.63
2019-05-04T07:50:44.853Z,94664.11
2019-05-04T07:53:15.843Z,94663.45
2019-05-04T07:55:45.770Z,94666.03
2019-05-04T07:58:15.180Z,94664.76
2019-05-04T08:00:46.048Z,94664.09
2019-05-04T08:03:19.930Z,94663.83
2019-05-04T08:05:48.405Z,94661.84
2019-05-04T08:08:19.931Z,94658.52
2019-05-04T08:10:50.745Z,94657.41
2019-05-04T08:13:20.594Z,94652.59
2019-05-04T08:15:51.122Z,94654.63
2019-05-04T08:18:21.256Z,94648.12
2019-05-04T08:21:00.610Z,94657.15
2019-05-04T08:23:24.959Z,94655.09
2019-05-04T08:25:55.471Z,94641.91
2019-05-04T08:28:24.914Z,94642.30
2019-05-04T08:30:55.186Z,94643.31
2019-05-04T08:33:29.106Z,94634.00
2019-05-04T08:35:55.821Z,94634.09
2019-05-04T08:38:25.224Z,94632.05
2019-05-04T08:40:54.578Z,94639.02
2019-05-04T08:43:24.866Z,94637.16
2019-05-04T08:45:59.052Z,94632.06
2019-05-04T08:48:29.354Z,94619.95
2019-05-04T08:51:31.314Z,94622.03
2019-05-04T08:53:58.890Z,94625.47
2019-05-04T08:56:40.456Z,94627.95
2019-05-04T08:59:15.548Z,94626.71
2019-05-04T09:01:58.558Z,94630.56
2019-05-04T09:04:28.706Z,94626.91
2019-05-04T09:07:04.265Z,94626.71
2019-05-04T09:09:30.397Z,94633.69
2019-05-04T09:11:58.883Z,94615.70
2019-05-04T09:14:32.891Z,94611.33
2019-05-04T09:16:59.631Z,94610.05
2019-05-04T09:19:29.005Z,94599.31
2019-05-04T09:22:17.354Z,94607.67
2019-05-04T09:24:29.371Z,94599.45
2019-05-04T09:26:59.032Z,94601.67
2019-05-04T09:29:30.975Z,94595.53
2019-05-04T09:32:00.064Z,94590.67
2019-05-04T09:34:31.946Z,94583.83
2019-05-04T09:37:00.493Z,94590.08
2019-05-04T09:39:29.825Z,94592.53
2019-05-04T09:42:04.919Z,93745.51
2019-05-04T09:44:34.650Z,94581.05
2019-05-04T09:47:04.723Z,94577.31
2019-05-04T09:49:34.786Z,94576.50
2019-05-04T09:52:10.435Z,94575.23
2019-05-04T09:54:39.742Z,94569.39
2019-05-04T09:57:09.062Z,94571.55
2019-05-04T09:59:49.742Z,94562.55
2019-05-04T10:02:09.534Z,94562.32
2019-05-04T10:04:38.872Z,94550.74
2019-05-04T10:07:08.240Z,94550.74
2019-05-04T10:09:37.986Z,94549.70
2019-05-04T10:12:15.225Z,94547.22
2019-05-04T10:14:54.403Z,94549.19
2019-05-04T10:17:29.031Z,94544.58
2019-05-04T10:19:58.397Z,94534.11
2019-05-04T10:22:27.736Z,94539.13
2019-05-04T10:24:57.057Z,94536.94
2019-05-04T10:27:35.129Z,94524.48
2019-05-04T10:30:05.078Z,94524.59
2019-05-04T10:32:34.628Z,94522.78
2019-05-04T10:35:05.040Z,94514.86
2019-05-04T10:37:34.687Z,94521.77
2019-05-04T10:40:05.155Z,94531.15
2019-05-04T10:42:35.155Z,94531.95
2019-05-04T10:45:05.036Z,94526.42
2019-05-04T10:47:34.937Z,94530.30
2019-05-04T10:50:05.182Z,94525.09
2019-05-04T10:52:36.011Z,94527.06
2019-05-04T10:55:06.548Z,94529.22
2019-05-04T10:57:39.765Z,94518.25
2019-05-04T11:00:14.567Z,94517.23
2019-05-04T11:02:43.974Z,94516.61
2019-05-04T11:05:15.242Z,94511.05
2019-05-04T11:07:44.902Z,94512.48
2019-05-04T11:10:15.438Z,94513.33
2019-05-04T11:12:45.109Z,94510.63
2019-05-04T11:15:14.818Z,94510.92
2019-05-04T11:17:44.615Z,94514.70
2019-05-04T11:20:16.253Z,94506.00
2019-05-04T11:22:46.616Z,94509.36
2019-05-04T11:25:29.196Z,94502.48
2019-05-04T11:28:09.696Z,94498.11
2019-05-04T11:30:39.074Z,94487.94
2019-05-04T11:33:08.425Z,94489.86
2019-05-04T11:35:37.859Z,94484.47
2019-05-04T11:38:07.213Z,94478.27
2019-05-04T11:40:36.552Z,94479.77
2019-05-04T11:43:06.210Z,94479.70
2019-05-04T11:45:35.664Z,94481.05
2019-05-04T11:48:05.416Z,94465.80
2019-05-04T11:50:36.021Z,94469.25
2019-05-04T11:53:06.625Z,94469.82
2019-05-04T11:55:35.964Z,94462.73
2019-05-04T11:58:05.828Z,94464.53
2019-05-04T12:00:36.818Z,94463.52
2019-05-04T12:03:07.908Z,94463.82
2019-05-04T12:05:59.110Z,94452.13
2019-05-04T12:08:55.001Z,94454.41
2019-05-04T12:11:26.809Z,94453.11
2019-05-04T12:13:56.186Z,94446.34
2019-05-04T12:16:25.677Z,94435.25
2019-05-04T12:18:55.163Z,94445.01
2019-05-04T12:21:24.570Z,94439.16
2019-05-04T12:23:55.210Z,94409.96
2019-05-04T12:26:25.433Z,94449.20
2019-05-04T12:28:55.607Z,94432.55
2019-05-04T12:31:25.002Z,94427.00
2019-05-04T12:33:54.519Z,94428.75
2019-05-04T12:36:23.846Z,94421.66
2019-05-04T12:38:53.239Z,94423.80
2019-05-04T12:41:24.379Z,94422.29
2019-05-04T12:44:01.539Z,94419.48
2019-05-04T12:46:25.131Z,94423.78
2019-05-04T12:48:54.684Z,94423.39
2019-05-04T12:51:24.480Z,94419.91
2019-05-04T12:53:55.011Z,94410.52
2019-05-04T12:56:24.896Z,94411.05
2019-05-04T12:58:55.356Z,94402.86
2019-05-04T13:01:24.873Z,94392.36
2019-05-04T13:03:54.767Z,94399.05
2019-05-04T13:06:24.539Z,94398.74
2019-05-04T13:08:54.425Z,94391.27
2019-05-04T13:11:25.045Z,94389.80
2019-05-04T13:13:54.542Z,94384.05
2019-05-04T13:16:25.000Z,94384.89
2019-05-04T13:19:00.269Z,94382.91
2019-05-04T13:21:29.664Z,94382.38
2019-05-04T13:23:59.172Z,94373.91
2019-05-04T13:26:28.543Z,94372.99
2019-05-04T13:28:57.885Z,94369.42
2019-05-04T13:31:27.287Z,94372.30
2019-05-04T13:33:56.879Z,94367.75
2019-05-04T13:36:26.752Z,94374.88
2019-05-04T13:38:56.475Z,94374.70
2019-05-04T13:41:26.113Z,94370.55
2019-05-04T13:43:56.607Z,94376.50
2019-05-04T13:46:26.228Z,94361.13
2019-05-04T13:48:56.235Z,94361.23
2019-05-04T13:51:26.064Z,94367.48
2019-05-04T13:53:57.616Z,94356.89
2019-05-04T13:56:44.544Z,94348.97
2019-05-04T13:59:18.516Z,94351.45
2019-05-04T14:02:16.279Z,94343.75
2019-05-04T14:04:54.445Z,94350.81
2019-05-04T14:07:23.965Z,94338.42
2019-05-04T14:09:54.445Z,94337.69
2019-05-04T14:12:24.682Z,94338.22
2019-05-04T14:14:55.018Z,94331.70
2019-05-04T14:17:24.775Z,94337.19
2019-05-04T14:19:54.754Z,94332.94
2019-05-04T14:22:25.680Z,94330.86
2019-05-04T14:24:55.500Z,94320.78
2019-05-04T14:27:26.763Z,94322.27
2019-05-04T14:29:56.391Z,94327.94
2019-05-04T14:32:25.753Z,94323.50
2019-05-04T14:34:58.289Z,94323.56
2019-05-04T14:37:27.616Z,94322.34
2019-05-04T14:39:57.033Z,94312.94
2019-05-04T14:42:27.467Z,94317.78
2019-05-04T14:45:17.854Z,94314.91
2019-05-04T14:48:09.156Z,94312.89
2019-05-04T14:50:38.514Z,94304.44
2019-05-04T14:53:07.928Z,94302.41
2019-05-04T14:55:37.267Z,94308.08
2019-05-04T14:58:06.628Z,94307.37
2019-05-04T15:00:36.170Z,94308.64
2019-05-04T15:03:05.635Z,94302.81
2019-05-04T15:05:35.058Z,94297.16
2019-05-04T15:08:04.580Z,94292.22
2019-05-04T15:10:34.371Z,94305.20
2019-05-04T15:13:05.458Z,94292.93
2019-05-04T15:15:35.057Z,94300.60
2019-05-04T15:18:05.110Z,94292.66
2019-05-04T15:20:40.948Z,94289.49
2019-05-04T15:23:10.308Z,94277.48
2019-05-04T15:25:39.946Z,94287.09
2019-05-04T15:28:09.271Z,94288.55
2019-05-04T15:30:38.727Z,94290.17
2019-05-04T15:33:08.090Z,94279.20
2019-05-04T15:35:37.421Z,94284.20
2019-05-04T15:38:06.842Z,94296.44
2019-05-04T15:40:36.187Z,94291.86
2019-05-04T15:43:05.563Z,94287.80
2019-05-04T15:45:35.286Z,94287.66
2019-05-04T15:48:08.146Z,94284.64
2019-05-04T15:50:56.125Z,94289.97
2019-05-04T15:53:47.141Z,94272.45
2019-05-04T15:56:35.362Z,94270.78
2019-05-04T15:59:06.908Z,94272.70
2019-05-04T16:01:36.407Z,94274.68
2019-05-04T16:04:05.728Z,94268.44
2019-05-04T16:06:35.061Z,94261.44
2019-05-04T16:09:05.682Z,94273.29
2019-05-04T16:11:35.207Z,94274.68
2019-05-04T16:14:05.375Z,94268.86
2019-05-04T16:16:35.708Z,94270.05
2019-05-04T16:19:05.182Z,94263.86
2019-05-04T16:21:35.297Z,94263.73
2019-05-04T16:24:06.058Z,94269.00
2019-05-04T16:26:35.529Z,94266.12
2019-05-04T16:29:05.540Z,94273.56
2019-05-04T16:31:35.015Z,94265.53
2019-05-04T16:34:04.983Z,94265.32
2019-05-04T16:36:34.405Z,94259.86
2019-05-04T16:39:05.130Z,94266.59
2019-05-04T16:41:35.143Z,94268.97
2019-05-04T16:44:07.498Z,94272.48
2019-05-04T16:46:36.989Z,94268.46
2019-05-04T16:49:08.821Z,94267.33
2019-05-04T16:51:59.275Z,94265.08
2019-05-04T16:54:28.883Z,94262.63
2019-05-04T16:56:59.217Z,94263.47
2019-05-04T16:59:28.769Z,94264.48
2019-05-04T17:02:16.138Z,94268.98
2019-05-04T17:04:51.961Z,94262.18
2019-05-04T17:07:20.410Z,94260.50
2019-05-04T17:09:49.793Z,94260.93
2019-05-04T17:12:19.499Z,94261.16
2019-05-04T17:14:48.857Z,94263.52
2019-05-04T17:17:18.229Z,94267.03
2019-05-04T17:19:47.703Z,94267.66
2019-05-04T17:22:17.483Z,94255.61
2019-05-04T17:25:05.163Z,94257.38
2019-05-04T17:27:54.966Z,94267.75
2019-05-04T17:30:38.502Z,94268.17
2019-05-04T17:33:08.143Z,94274.81
2019-05-04T17:35:37.864Z,94265.28
2019-05-04T17:38:07.482Z,94275.59
2019-05-04T17:40:43.370Z,94287.20
2019-05-04T17:43:34.500Z,94283.84
2019-05-04T17:46:05.841Z,94293.81
2019-05-04T17:48:35.169Z,94290.96
2019-05-04T17:51:10.419Z,94292.11
2019-05-04T17:53:41.707Z,94303.97
2019-05-04T17:56:11.360Z,94307.95
2019-05-04T17:58:40.710Z,94312.86
2019-05-04T18:01:27.420Z,94313.27
2019-05-04T18:03:59.451Z,94323.00
2019-05-04T18:06:28.787Z,94327.47
2019-05-04T18:09:00.459Z,94325.55
2019-05-04T18:11:37.605Z,94317.41
2019-05-04T18:14:35.531Z,94323.08
2019-05-04T18:17:07.183Z,94319.97
2019-05-04T18:19:36.529Z,94316.86
2019-05-04T18:22:05.914Z,94307.56
2019-05-04T18:24:35.393Z,94317.31
2019-05-04T18:27:04.787Z,94313.63
2019-05-04T18:29:35.338Z,94319.83
2019-05-04T18:32:04.949Z,94316.55
2019-05-04T18:34:36.651Z,94318.61
2019-05-04T18:37:05.630Z,94317.84
2019-05-04T18:39:34.960Z,94322.69
2019-05-04T18:42:06.032Z,94316.09
2019-05-04T18:44:54.501Z,94320.14
2019-05-04T18:47:51.776Z,94318.56
2019-05-04T18:50:21.118Z,94316.02
2019-05-04T18:52:50.473Z,94316.02
2019-05-04T18:55:19.865Z,94320.05
2019-05-04T18:57:49.220Z,94316.67
2019-05-04T19:00:31.526Z,94319.97
2019-05-04T19:03:01.138Z,94312.94
2019-05-04T19:05:31.181Z,94322.94
2019-05-04T19:08:06.674Z,94325.27
2019-05-04T19:10:36.040Z,94336.86
2019-05-04T19:13:05.380Z,94341.86
2019-05-04T19:15:34.790Z,94342.25
2019-05-04T19:18:04.710Z,94350.00
2019-05-04T19:20:34.131Z,94355.81
2019-05-04T19:23:04.564Z,94347.33
2019-05-04T19:25:35.341Z,94352.44
2019-05-04T19:28:05.113Z,94346.76
2019-05-04T19:30:35.174Z,94335.86
2019-05-04T19:33:05.391Z,94339.14
2019-05-04T19:35:34.828Z,94342.42
2019-05-04T19:38:05.483Z,94342.42
2019-05-04T19:40:39.289Z,94337.00
2019-05-04T19:43:31.424Z,94342.17
2019-05-04T19:46:31.891Z,94320.72
2019-05-04T19:49:07.077Z,94313.98
2019-05-04T19:51:34.727Z,94308.19
2019-05-04T19:54:06.351Z,94308.77
2019-05-04T19:56:35.284Z,94309.77
2019-05-04T19:59:05.186Z,94313.69
2019-05-04T20:01:34.752Z,94315.47
2019-05-04T20:04:05.460Z,94304.44
2019-05-04T20:06:48.743Z,94300.36
2019-05-04T20:09:46.255Z,94303.68
2019-05-04T20:12:18.608Z,94306.76
2019-05-04T20:15:08.690Z,94304.05
2019-05-04T20:17:19.052Z,94313.72
2019-05-04T20:19:48.385Z,94316.80
2019-05-04T20:22:17.748Z,94309.02
2019-05-04T20:24:47.108Z,94316.77
2019-05-04T20:27:16.476Z,94315.63
2019-05-04T20:29:45.812Z,94314.44
2019-05-04T20:32:15.187Z,94313.23
2019-05-04T20:34:45.006Z,94315.13
2019-05-04T20:37:15.703Z,94314.22
2019-05-04T20:39:45.707Z,94314.97
2019-05-04T20:42:15.810Z,94314.56
2019-05-04T20:44:54.959Z,94312.34
2019-05-04T20:47:54.744Z,94314.27
2019-05-04T20:50:24.537Z,94312.91
2019-05-04T20:53:15.824Z,94298.04
2019-05-04T20:55:45.846Z,94294.41
2019-05-04T20:58:15.330Z,94281.59
2019-05-04T21:00:45.353Z,94278.88
2019-05-04T21:03:24.647Z,94271.48
2019-05-04T21:06:20.141Z,94275.38
2019-05-04T21:08:49.499Z,94270.70
2019-05-04T21:11:18.895Z,94272.92
2019-05-04T21:13:48.263Z,94285.41
2019-05-04T21:16:17.980Z,94288.99
2019-05-04T21:19:00.710Z,94304.45
2019-05-04T21:21:41.142Z,94287.95
2019-05-04T21:24:10.772Z,94275.70
2019-05-04T21:26:40.117Z,94267.91
2019-05-04T21:29:09.471Z,94267.52
2019-05-04T21:31:38.809Z,94279.15
2019-05-04T21:34:08.137Z,94265.62
2019-05-04T21:36:37.518Z,94262.56
2019-05-04T21:39:07.360Z,94265.22
2019-05-04T21:41:36.718Z,94276.21
2019-05-04T21:44:09.311Z,94276.15
2019-05-04T21:47:06.695Z,94270.50
2019-05-04T21:49:56.042Z,94275.87
2019-05-04T21:52:25.399Z,94270.84
2019-05-04T21:54:54.831Z,94269.27
2019-05-04T21:57:24.737Z,94265.08
2019-05-04T21:59:55.160Z,94249.30
2019-05-04T22:02:38.053Z,94236.89
2019-05-04T22:05:12.741Z,94249.64
2019-05-04T22:07:42.073Z,94269.14
2019-05-04T22:10:11.715Z,94277.20
2019-05-04T22:12:42.301Z,94263.22
2019-05-04T22:15:11.848Z,94269.27
2019-05-04T22:17:41.738Z,94261.19
2019-05-04T22:20:15.216Z,94259.24
2019-05-04T22:22:45.232Z,94261.36
2019-05-04T22:25:15.089Z,94265.98
2019-05-04T22:27:44.966Z,94260.36
2019-05-04T22:30:14.730Z,94259.95
2019-05-04T22:32:45.263Z,94261.30
2019-05-04T22:35:14.833Z,94263.76
2019-05-04T22:37:49.250Z,94268.63
2019-05-04T22:40:18.589Z,94277.13
2019-05-04T22:42:47.974Z,94268.73
2019-05-04T22:45:17.622Z,94272.81
2019-05-04T22:47:46.948Z,94272.08
2019-05-04T22:50:16.276Z,94261.64
2019-05-04T22:52:55.154Z,94251.93
2019-05-04T22:55:29.518Z,94244.79
2019-05-04T22:58:16.776Z,94237.86
2019-05-04T23:00:57.552Z,94241.87
2019-05-04T23:03:31.330Z,94250.41
2019-05-04T23:06:00.652Z,94254.81
2019-05-04T23:08:30.005Z,94250.17
2019-05-04T23:10:59.391Z,94255.36
2019-05-04T23:13:28.728Z,94262.94
2019-05-04T23:15:58.068Z,94257.45
2019-05-04T23:18:27.441Z,94256.80
2019-05-04T23:20:56.766Z,94253.12
2019-05-04T23:23:26.113Z,94248.44
2019-05-04T23:25:55.474Z,94242.41
2019-05-04T23:28:25.143Z,94229.13
2019-05-04T23:30:55.163Z,94222.61
2019-05-04T23:33:26.644Z,94215.34
2019-05-04T23:35:55.764Z,94219.26
2019-05-04T23:38:25.076Z,94230.88
2019-05-04T23:40:55.326Z,94235.73
2019-05-04T23:43:24.678Z,94237.95
2019-05-04T23:45:54.937Z,94229.09
2019-05-04T23:48:25.378Z,94219.08
2019-05-04T23:50:55.220Z,94227.66
2019-05-04T23:53:25.099Z,94239.28
2019-05-04T23:55:54.742Z,94232.34
2019-05-04T23:58:43.042Z,94225.18
